x

Nfb - Northwest Florida Bay, Fl (nfbf1) Weather Station

2:54am - Sun 5th Jul 2015 All times are CDT. -4 hours from GMT.

  • Wind
    9mph, 11mph gusts
  • Air Temp 85°f
  • Sea Pressure 1019.2mb
  • Nfb - Northwest Florida Bay, Fl
  • Nfb - Northwest Florida Bay, Fl

More Historic Weather Station data

Upgrade to MSW Pro to gain access to the past 30 days of data for over 8000 Wavebouys and Weather Stations around the globe.

Join Pro

Comparision Forecast

View Surf forecast
   
Sun 07/05 2:54am 9 11 mph 1019.2mb 85f
2:48am 10 14 mph 1019.2mb 85f
2:42am 9 13 mph 1019.3mb 85f
2:36am 9 11 mph 1019.3mb 85f
12:54am 10 13 mph 1020.3mb 86f
12:48am 11 15 mph 1020.3mb 86f
12:42am 11 15 mph 1020.3mb 86f
12:36am 11 15 mph 1020.3mb 86f
12:30am 11 14 mph 1020.2mb 86f
12:24am 13 17 mph 1020.2mb 86f
12:18am 13 15 mph 1020.1mb 86f
12:12am 13 15 mph 1020mb 86f
12:06am 11 16 mph 1020.1mb 86f
12:00am 11 15 mph 1020mb 86f
Sat 07/04 11:54pm 13 14 mph 1020mb 86f
11:48pm 11 14 mph 1020mb 86f
11:42pm 11 15 mph 1019.9mb 86f
11:36pm 13 15 mph 1019.7mb 86f
11:30pm 11 15 mph 1019.6mb 86f
11:24pm 13 15 mph 1019.7mb 86f
11:18pm 13 16 mph 1019.7mb 86f
11:12pm 13 16 mph 1019.5mb 86f
11:06pm 13 16 mph 1019.5mb 86f
11:00pm 15 18 mph 1019.4mb 86f
10:54pm 15 18 mph 1019.4mb 86f
10:48pm 15 17 mph 1019.4mb 86f
10:42pm 14 17 mph 1019.5mb 86f
10:36pm 13 15 mph 1019.6mb 86f
10:30pm 13 15 mph 1019.6mb 86f
10:24pm 14 16 mph 1019.5mb 86f
10:18pm 14 18 mph 1019.5mb 87f
10:12pm 14 17 mph 1019.4mb 86f
10:06pm 13 16 mph 1019.4mb 86f
10:00pm 14 16 mph 1019.3mb 86f
9:54pm 14 16 mph 1019.3mb 86f
9:48pm 14 17 mph 1019.2mb 87f
9:42pm 14 16 mph 1019.2mb 86f
9:36pm 14 16 mph 1019.1mb 87f
9:30pm 11 14 mph 1019.1mb 87f
9:24pm 13 15 mph 1019mb 87f
9:18pm 13 16 mph 1018.9mb 87f
9:12pm 13 17 mph 1018.8mb 87f
9:06pm 13 16 mph 1018.7mb 87f
9:00pm 14 16 mph 1018.7mb 87f
8:54pm 14 17 mph 1018.8mb 87f
8:48pm 13 16 mph 1018.8mb 87f
8:42pm 10 13 mph 1018.8mb 87f
8:36pm 11 15 mph 1018.8mb 87f
8:30pm 10 13 mph 1018.8mb 87f
8:24pm 11 15 mph 1018.7mb 87f
8:18pm 11 15 mph 1018.7mb 87f
8:12pm 11 15 mph 1018.5mb 87f
8:06pm 11 14 mph 1018.6mb 87f
8:00pm 13 16 mph 1018.5mb 87f
6:54pm 13 15 mph 1018mb 87f
6:48pm 14 17 mph 1017.9mb 87f
6:42pm 14 16 mph 1017.9mb 87f
6:36pm 14 17 mph 1017.8mb 87f
5:54pm 14 16 mph 1017.9mb 87f
5:48pm 15 22 mph 1017.8mb 87f
5:42pm 14 17 mph 1017.8mb 87f
5:36pm 15 17 mph 1017.8mb 87f
3:54pm 16 21 mph 1018mb 87f
3:48pm 16 20 mph 1018.1mb 87f
3:42pm 14 18 mph 1018.5mb 87f
3:36pm 10 14 mph 1018.8mb 87f
2:54pm 13 14 mph 1019.2mb 87f
2:48pm 13 15 mph 1019mb 87f
2:42pm 14 17 mph 1019mb 87f
2:36pm 14 18 mph 1018.9mb 87f
12:54pm 10 14 mph 1019.6mb 86f
12:48pm 10 14 mph 1019.6mb 86f
12:42pm 10 14 mph 1019.7mb 86f
12:36pm 10 14 mph 1019.7mb 86f
12:30pm 10 14 mph 1019.8mb 86f
12:24pm 11 16 mph 1019.8mb 86f
12:18pm 10 14 mph 1019.8mb 86f
12:12pm 13 14 mph 1019.8mb 86f
12:06pm 13 14 mph 1019.8mb 86f
12:00pm 13 15 mph 1019.8mb 86f
11:54am 13 15 mph 1019.7mb 86f
11:48am 13 16 mph 1019.7mb 86f
11:42am 13 16 mph 1019.7mb 86f
11:36am 13 16 mph 1019.7mb 86f
3:54am 9 11 mph 1017.8mb 82f
3:48am 9 11 mph 1017.9mb 82f
3:42am 10 13 mph 1017.8mb 82f
3:36am 10 13 mph 1017.8mb 83f
3:30am 11 13 mph 1017.9mb 83f
3:24am 11 13 mph 1017.9mb 83f
3:18am 10 13 mph 1017.9mb 82f
3:12am 10 13 mph 1018mb 82f
3:06am 9 11 mph 1018.1mb 82f
3:00am 11 14 mph 1018.2mb 82f
2:54am 10 13 mph 1018.3mb 82f
2:48am 9 10 mph 1018.4mb 82f
1:54am 13 14 mph 1019mb 80f
1:48am 11 14 mph 1019.1mb 80f
12:54am 10 13 mph 1019.4mb 81f
12:48am 11 14 mph 1019.5mb 82f
12:42am 11 13 mph 1019.6mb 82f
12:36am 11 13 mph 1019.6mb 82f
Fri 07/03 11:54pm 11 13 mph 1019.5mb 83f
11:48pm 10 13 mph 1019.5mb 83f
11:42pm 10 13 mph 1019.5mb 83f
11:36pm 11 14 mph 1019.3mb 83f
10:54pm 15 17 mph 1019.4mb 85f
10:48pm 15 17 mph 1019.3mb 85f
10:42pm 14 18 mph 1019.3mb 85f
10:36pm 11 14 mph 1019.2mb 85f
9:54pm 17 21 mph 1018.7mb 81f
9:48pm 20 23 mph 1018.7mb 80f
9:42pm 20 24 mph 1018.6mb 80f
9:36pm 21 24 mph 1018.6mb 81f
8:54pm 17 21 mph 1018.5mb 80f
8:48pm 18 23 mph 1018.5mb 78f
8:42pm 20 26 mph 1018.5mb 79f
8:36pm 17 23 mph 1018.7mb 80f
8:30pm 23 29 mph 1018.7mb 81f
8:24pm 18 28 mph 1018.9mb 81f
8:18pm 17 26 mph 1018.8mb 83f
8:12pm 9 13 mph 1018.3mb 85f
8:06pm 11 13 mph 1018.1mb 86f
8:00pm 10 14 mph 1018.2mb 86f
7:54pm 11 16 mph 1018mb 86f
7:48pm 14 16 mph 1018mb 86f
6:54pm 11 13 mph 1017.5mb 86f
6:48pm 11 13 mph 1017.5mb 86f
6:42pm 11 14 mph 1017.4mb 86f
6:36pm 13 16 mph 1017.3mb 86f
6:30pm 11 14 mph 1017.2mb 86f
6:24pm 13 15 mph 1017.2mb 86f
6:18pm 11 15 mph 1017.1mb 86f
6:12pm 13 16 mph 1017mb 86f
6:06pm 15 17 mph 1017.1mb 86f
6:00pm 17 21 mph 1017.2mb 86f
5:54pm 15 17 mph 1017.3mb 86f
5:48pm 14 17 mph 1017.3mb 86f
5:42pm 13 15 mph 1017.3mb 86f
5:36pm 14 17 mph 1017.4mb 86f
5:30pm 14 17 mph 1017.4mb 86f
5:24pm 13 15 mph 1017.6mb 86f
5:18pm 10 14 mph 1017.6mb 85f
5:12pm 10 13 mph 1017.6mb 85f
5:06pm 13 17 mph 1017.6mb 85f
5:00pm 15 17 mph 1017.4mb 86f
4:54pm 14 16 mph 1017.5mb 86f
4:48pm 13 16 mph 1017.6mb 86f
3:54pm 13 16 mph 1017.4mb 87f
3:48pm 14 16 mph 1017.4mb 87f
3:42pm 13 16 mph 1017.5mb 87f
3:36pm 14 17 mph 1017.5mb 87f
2:54pm 13 15 mph 1017.6mb 87f
2:48pm 13 16 mph 1017.6mb 87f
2:42pm 13 15 mph 1017.6mb 87f
2:36pm 11 15 mph 1017.8mb 87f
1:54pm 9 13 mph 1018.3mb 87f
1:48pm 10 11 mph 1018.4mb 87f
12:54pm 10 11 mph 1018.7mb 86f
12:48pm 10 13 mph 1018.9mb 86f
12:42pm 10 13 mph 1018.9mb 85f
12:36pm 13 14 mph 1018.9mb 85f
11:54am 10 13 mph 1019.1mb 85f
11:48am 9 11 mph 1019.2mb 86f
11:42am 10 13 mph 1019.1mb 86f
11:36am 9 11 mph 1019.1mb 85f
10:54am 9 10 mph 1018.8mb 85f
10:48am 11 13 mph 1018.8mb 85f
9:54am 8 10 mph 1018.9mb 84f
9:48am 9 11 mph 1019mb 84f
9:42am 11 14 mph 1019mb 84f
9:36am 11 15 mph 1018.9mb 84f
8:54am 11 14 mph 1018.5mb 83f
8:48am 11 14 mph 1018.6mb 83f
8:42am 11 14 mph 1018.6mb 83f
8:36am 11 14 mph 1018.6mb 83f
7:54am 10 11 mph 1018.1mb 83f
7:48am 11 13 mph 1018.1mb 83f
6:54am 11 13 mph 1017.7mb 81f
6:48am 11 13 mph 1017.7mb 81f
6:42am 11 14 mph 1017.6mb 81f
6:36am 10 11 mph 1017.5mb 81f
6:30am 13 14 mph 1017.5mb 81f
6:24am 11 14 mph 1017.3mb 81f
6:18am 13 15 mph 1017.4mb 81f
6:12am 13 15 mph 1017.3mb 81f
6:06am 10 11 mph 1017.3mb 81f
6:00am 11 14 mph 1017.3mb 82f
5:54am 9 13 mph 1017.3mb 82f
5:48am 11 14 mph 1017.3mb 82f
5:42am 10 14 mph 1017.3mb 83f
5:36am 8 10 mph 1017.4mb 85f
4:54am 11 15 mph 1017.7mb 85f
4:48am 10 14 mph 1017.7mb 85f
3:54am 14 16 mph 1017.5mb 86f
3:48am 13 16 mph 1017.5mb 85f
3:42am 11 14 mph 1017.4mb 86f
3:36am 11 15 mph 1017.4mb 86f
2:54am 13 15 mph 1017.4mb 85f
2:48am 14 16 mph 1017.5mb 85f
2:42am 14 17 mph 1017.6mb 85f
2:36am 13 16 mph 1017.7mb 85f
1:54am 13 16 mph 1018.2mb 85f
1:48am 14 17 mph 1018.1mb 85f
12:54am 9 11 mph 1018.9mb 84f
12:48am 10 13 mph 1019mb 85f
12:42am 9 11 mph 1019.1mb 85f
12:36am 11 16 mph 1019.2mb 85f
Thu 07/02 11:54pm 13 16 mph 1019.5mb 86f
11:48pm 13 15 mph 1019.7mb 86f
11:42pm 13 14 mph 1019.8mb 86f
11:36pm 13 15 mph 1019.8mb 86f
10:54pm 13 15 mph 1020mb 86f
10:48pm 11 14 mph 1020mb 86f
10:42pm 13 15 mph 1019.8mb 86f
10:36pm 11 14 mph 1019.9mb 86f
9:54pm 13 16 mph 1019.4mb 86f
9:48pm 13 16 mph 1019.3mb 86f
9:42pm 13 17 mph 1019.2mb 86f
9:36pm 13 15 mph 1019.1mb 86f
8:54pm 13 16 mph 1018.9mb 86f
8:48pm 11 16 mph 1019.1mb 86f
8:42pm 11 14 mph 1019mb 86f
8:36pm 11 15 mph 1018.9mb 86f
7:54pm 13 15 mph 1018.2mb 87f
7:48pm 10 13 mph 1018.3mb 87f
6:54pm 13 16 mph 1017mb 87f
6:48pm 14 16 mph 1016.9mb 87f
6:42pm 13 16 mph 1017mb 87f
6:36pm 14 18 mph 1017mb 87f
5:54pm 11 14 mph 1017mb 87f
5:48pm 11 14 mph 1017mb 87f
5:42pm 14 15 mph 1017mb 87f
5:36pm 14 16 mph 1017mb 87f
4:54pm 15 17 mph 1016.9mb 87f
4:48pm 16 20 mph 1016.9mb 87f
4:42pm 14 17 mph 1017mb 87f
4:36pm 14 17 mph 1017.1mb 87f
3:54pm 11 16 mph 1017.9mb 87f
3:48pm 13 15 mph 1018mb 87f
3:42pm 13 15 mph 1018.2mb 87f
3:36pm 13 14 mph 1018.2mb 87f
2:54pm 14 15 mph 1018.7mb 87f
2:48pm 11 14 mph 1018.8mb 87f
2:42pm 13 14 mph 1018.9mb 87f
2:36pm 11 14 mph 1018.9mb 87f
1:54pm 10 13 mph 1019.2mb 86f
1:48pm 9 13 mph 1019.3mb 86f
1:42pm 8 10 mph 1019.5mb 86f
1:36pm 9 11 mph 1019.5mb 86f
12:54pm 6 8 mph 1020mb 87f
12:48pm 7 9 mph 1020mb 87f
12:42pm 6 7 mph 1020.2mb 87f
12:36pm 6 8 mph 1020.2mb 87f
12:30pm 6 7 mph 1020.2mb 87f
12:24pm 7 9 mph 1020mb 87f
12:18pm 6 9 mph 1020mb 86f
12:12pm 3 7 mph 1020mb 86f
12:06pm 2 6 mph 1020mb 86f
12:00pm 3 5 mph 1020.1mb 86f
11:54am 5 6 mph 1020.1mb 86f
11:48am 5 6 mph 1020.2mb 86f
11:42am 3 5 mph 1020.3mb 86f
11:36am 2 5 mph 1020.4mb 85f
10:54am 16 21 mph 1019.9mb 83f
10:48am 15 18 mph 1019.8mb 84f
9:54am 8 10 mph 1019.7mb 86f
9:48am 11 14 mph 1019.7mb 86f
9:42am 11 14 mph 1019.6mb 86f
9:36am 13 15 mph 1019.6mb 86f
8:54am 14 15 mph 1019.2mb 86f
8:48am 14 16 mph 1019.2mb 86f
8:42am 13 15 mph 1019.3mb 86f
8:36am 14 15 mph 1019.3mb 86f
7:54am 16 18 mph 1018.8mb 86f
7:48am 16 20 mph 1018.8mb 86f
7:42am 16 20 mph 1018.7mb 86f
7:36am 16 18 mph 1018.7mb 86f
6:54am 18 21 mph 1018.2mb 86f
6:48am 18 21 mph 1018.2mb 86f
6:42am 18 21 mph 1018.1mb 86f
6:36am 18 21 mph 1018mb 86f
6:30am 18 21 mph 1017.9mb 86f
6:24am 20 23 mph 1017.7mb 86f
6:18am 20 23 mph 1017.7mb 86f
6:12am 20 23 mph 1017.6mb 86f
6:06am 18 22 mph 1017.7mb 86f
6:00am 20 22 mph 1017.6mb 86f
5:54am 21 23 mph 1017.6mb 86f
5:48am 20 22 mph 1017.6mb 86f
5:42am 20 24 mph 1017.6mb 86f
5:36am 20 22 mph 1017.5mb 86f
5:30am 20 22 mph 1017.5mb 86f
5:24am 17 22 mph 1017.5mb 86f
5:18am 18 21 mph 1017.5mb 86f
5:12am 18 22 mph 1017.4mb 86f
5:06am 18 23 mph 1017.5mb 86f
5:00am 18 22 mph 1017.6mb 86f
4:54am 20 22 mph 1017.6mb 86f
4:48am 20 23 mph 1017.7mb 86f
3:54am 11 15 mph 1017.7mb 85f
3:48am 11 16 mph 1017.8mb 85f
3:42am 11 15 mph 1017.9mb 85f
3:36am 11 15 mph 1017.9mb 85f
2:54am 10 11 mph 1018.2mb 84f
2:48am 10 11 mph 1018.3mb 83f
2:42am 10 11 mph 1018.4mb 83f
2:36am 10 11 mph 1018.5mb 84f
1:54am 10 13 mph 1019.2mb 86f
1:48am 11 15 mph 1019.3mb 86f
12:54am 14 16 mph 1019.6mb 86f
12:48am 13 16 mph 1019.7mb 86f
12:42am 14 17 mph 1019.7mb 86f
12:36am 14 15 mph 1019.8mb 86f
Wed 07/01 11:54pm 14 16 mph 1020.3mb 87f
11:48pm 14 16 mph 1020.3mb 87f
11:42pm 14 16 mph 1020.4mb 87f
11:36pm 11 15 mph 1020.5mb 86f
10:54pm 10 11 mph 1020.3mb 85f
10:48pm 9 10 mph 1020.3mb 84f
10:42pm 9 10 mph 1020.2mb 84f
10:36pm 10 11 mph 1020.1mb 84f
9:54pm 13 15 mph 1019.4mb 84f
9:48pm 13 14 mph 1019.3mb 84f
9:42pm 11 14 mph 1019.4mb 85f
9:36pm 13 14 mph 1019.4mb 84f
9:30pm 13 15 mph 1019.4mb 84f
9:24pm 14 15 mph 1019.4mb 85f
9:18pm 13 14 mph 1019.3mb 85f
9:12pm 13 14 mph 1019.3mb 85f
9:06pm 11 14 mph 1019.2mb 84f
9:00pm 11 13 mph 1019.2mb 84f
8:54pm 13 15 mph 1019.3mb 84f
8:48pm 13 15 mph 1019.3mb 84f
8:42pm 11 14 mph 1019.1mb 84f
8:36pm 11 14 mph 1019.1mb 84f
7:54pm 13 15 mph 1019.4mb 83f
7:48pm 13 16 mph 1019.5mb 83f
6:54pm 14 16 mph 1018.9mb 88f
6:48pm 13 16 mph 1019mb 88f
6:42pm 11 15 mph 1019mb 88f
6:36pm 13 16 mph 1018.9mb 88f
5:54pm 13 16 mph 1018.4mb 88f
5:48pm 11 14 mph 1018.5mb 88f
5:42pm 11 13 mph 1018.5mb 88f
5:36pm 11 14 mph 1018.5mb 88f
4:54pm 13 15 mph 1018.5mb 88f
4:48pm 13 15 mph 1018.5mb 87f
4:42pm 11 14 mph 1018.6mb 87f
4:36pm 11 14 mph 1018.6mb 87f
4:30pm 11 15 mph 1018.6mb 87f
4:24pm 13 16 mph 1018.6mb 87f
4:18pm 13 16 mph 1018.6mb 87f
4:12pm 11 15 mph 1018.6mb 87f
4:06pm 10 13 mph 1018.6mb 87f
4:00pm 11 14 mph 1018.6mb 87f
3:54pm 13 15 mph 1018.6mb 87f
3:48pm 11 14 mph 1018.6mb 87f
3:42pm 13 15 mph 1018.6mb 87f
3:36pm 13 17 mph 1018.6mb 87f
3:30pm 13 15 mph 1018.7mb 87f
3:24pm 11 15 mph 1018.9mb 87f
3:18pm 10 13 mph 1018.9mb 87f
3:12pm 11 14 mph 1019mb 87f
3:06pm 11 14 mph 1019mb 87f
3:00pm 11 13 mph 1019mb 87f
2:54pm 11 15 mph 1019.1mb 87f
2:48pm 11 14 mph 1019.2mb 87f
2:42pm 10 14 mph 1019.5mb 87f
2:36pm 10 13 mph 1019.5mb 87f
1:54pm 14 16 mph 1019.9mb 87f
1:48pm 14 17 mph 1019.9mb 87f
12:54pm 9 13 mph 1020.3mb 87f
12:48pm 10 14 mph 1020.4mb 87f
12:42pm 11 15 mph 1020.5mb 87f
12:36pm 10 15 mph 1020.5mb 87f
12:30pm 10 14 mph 1020.6mb 87f
12:24pm 10 14 mph 1020.6mb 87f
12:18pm 11 14 mph 1020.7mb 87f
12:12pm 10 14 mph 1020.8mb 87f
12:06pm 9 13 mph 1020.9mb 87f
12:00pm 10 13 mph 1020.9mb 87f
11:54am 9 13 mph 1020.9mb 87f
11:48am 9 11 mph 1020.9mb 87f
11:42am 9 13 mph 1020.9mb 87f
11:36am 9 13 mph 1021mb 86f
11:30am 10 13 mph 1020.9mb 86f
11:24am 9 11 mph 1020.9mb 86f
11:18am 10 14 mph 1020.9mb 86f
11:12am 11 14 mph 1020.9mb 86f
11:06am 11 14 mph 1020.7mb 86f
11:00am 13 16 mph 1020.7mb 86f
10:54am 13 14 mph 1020.7mb 86f
10:48am 13 16 mph 1020.6mb 86f
10:42am 13 15 mph 1020.6mb 86f
10:36am 11 14 mph 1020.7mb 86f
10:30am 11 14 mph 1020.6mb 86f
10:24am 11 14 mph 1020.7mb 86f
10:18am 11 14 mph 1020.7mb 86f
10:12am 11 14 mph 1020.7mb 86f
10:06am 10 13 mph 1020.6mb 86f
10:00am 11 15 mph 1020.6mb 86f
9:54am 11 14 mph 1020.8mb 86f
9:48am 11 14 mph 1020.9mb 86f
9:42am 13 15 mph 1020.9mb 86f
9:36am 13 16 mph 1020.9mb 86f
8:54am 14 15 mph 1020.5mb 85f
8:48am 15 16 mph 1020.3mb 85f
8:42am 15 18 mph 1020.3mb 85f
8:36am 15 18 mph 1020.3mb 85f